createdAt,value
2018-12-01T00:00:24.607Z,10.40
2018-12-01T00:01:05.207Z,9.40
2018-12-01T00:01:44.058Z,7.58
2018-12-01T00:02:22.066Z,14.47
2018-12-01T00:03:00.856Z,6.33
2018-12-01T00:03:39.309Z,11.88
2018-12-01T00:04:18.576Z,6.30
2018-12-01T00:04:57.882Z,10.43
2018-12-01T00:05:36.436Z,12.45
2018-12-01T00:06:14.558Z,7.12
2018-12-01T00:06:53.990Z,7.10
2018-12-01T00:07:33.232Z,8.95
2018-12-01T00:08:11.421Z,10.88
2018-12-01T00:08:50.040Z,7.50
2018-12-01T00:09:28.343Z,6.87
2018-12-01T00:10:08.304Z,9.45
2018-12-01T00:10:46.894Z,9.93
2018-12-01T00:11:25.849Z,8.30
2018-12-01T00:12:05.771Z,6.85
2018-12-01T00:12:44.301Z,12.20
2018-12-01T00:13:22.668Z,7.33
2018-12-01T00:14:01.408Z,10.05
2018-12-01T00:14:39.548Z,9.13
2018-12-01T00:15:19.670Z,8.80
2018-12-01T00:15:58.070Z,6.03
2018-12-01T00:16:36.349Z,8.20
2018-12-01T00:17:14.791Z,9.00
2018-12-01T00:17:57.288Z,7.25
2018-12-01T00:18:35.767Z,10.25
2018-12-01T00:19:16.162Z,7.58
2018-12-01T00:19:55.696Z,11.60
2018-12-01T00:20:38.160Z,7.50
2018-12-01T00:21:17.170Z,9.65
2018-12-01T00:21:55.459Z,5.90
2018-12-01T00:22:34.715Z,12.00
2018-12-01T00:23:13.451Z,13.00
2018-12-01T00:23:51.835Z,8.50
2018-12-01T00:24:29.838Z,17.30
2018-12-01T00:25:08.812Z,6.30
2018-12-01T00:25:47.459Z,10.23
2018-12-01T00:26:26.181Z,12.00
2018-12-01T00:27:05.143Z,7.45
2018-12-01T00:27:44.828Z,8.60
2018-12-01T00:28:23.244Z,10.23
2018-12-01T00:29:01.609Z,8.70
2018-12-01T00:29:39.923Z,11.15
2018-12-01T00:30:20.113Z,11.95
2018-12-01T00:31:00.224Z,10.95
2018-12-01T00:31:38.458Z,8.53
2018-12-01T00:32:17.595Z,7.60
2018-12-01T00:32:56.665Z,8.65
2018-12-01T00:33:34.989Z,8.00
2018-12-01T00:34:13.580Z,10.75
2018-12-01T00:34:53.473Z,11.00
2018-12-01T00:35:33.272Z,15.10
2018-12-01T00:36:11.511Z,14.98
2018-12-01T00:36:49.808Z,19.10
2018-12-01T00:37:28.126Z,14.55
2018-12-01T00:38:06.443Z,13.45
2018-12-01T00:38:44.772Z,8.83
2018-12-01T00:39:23.508Z,15.05
2018-12-01T00:40:02.279Z,12.55
2018-12-01T00:41:44.314Z,17.52
2018-12-01T00:42:22.650Z,15.78
2018-12-01T00:43:01.198Z,13.72
2018-12-01T00:43:39.859Z,14.50
2018-12-01T00:44:18.284Z,9.63
2018-12-01T00:44:56.475Z,13.90
2018-12-01T00:45:34.951Z,14.05
2018-12-01T00:49:15.453Z,10.68
2018-12-01T00:49:54.072Z,15.43
2018-12-01T00:50:33.150Z,10.40
2018-12-01T00:51:11.916Z,14.70
2018-12-01T00:51:49.985Z,10.32
2018-12-01T00:52:28.958Z,8.45
2018-12-01T00:53:08.803Z,11.00
2018-12-01T00:53:47.423Z,15.60
2018-12-01T00:54:25.953Z,16.15
2018-12-01T00:55:04.821Z,11.12
2018-12-01T00:55:44.315Z,11.12
2018-12-01T00:56:22.968Z,11.73
2018-12-01T00:57:02.647Z,9.30
2018-12-01T00:57:41.165Z,14.53
2018-12-01T00:58:19.375Z,14.63
2018-12-01T00:59:01.239Z,17.65
2018-12-01T00:59:39.496Z,14.75
2018-12-01T01:00:26.923Z,10.58
2018-12-01T01:01:05.125Z,15.48
2018-12-01T01:01:44.861Z,14.07
2018-12-01T01:02:27.318Z,11.60
2018-12-01T01:03:05.576Z,15.20
2018-12-01T01:03:43.793Z,12.45
2018-12-01T01:04:23.101Z,10.93
2018-12-01T01:05:01.574Z,11.63
2018-12-01T01:05:41.234Z,14.23
2018-12-01T01:06:19.291Z,14.58
2018-12-01T01:07:00.619Z,10.72
2018-12-01T01:07:40.206Z,18.77
2018-12-01T01:08:19.686Z,12.55
2018-12-01T01:08:58.047Z,9.58
2018-12-01T01:09:39.370Z,10.35
2018-12-01T01:10:17.573Z,17.05
2018-12-01T01:10:55.455Z,10.63
2018-12-01T01:11:33.490Z,13.65
2018-12-01T01:12:12.115Z,13.50
2018-12-01T01:12:50.583Z,12.13
2018-12-01T01:13:29.074Z,11.38
2018-12-01T01:14:07.401Z,14.73
2018-12-01T01:14:45.788Z,8.30
2018-12-01T01:15:24.628Z,15.28
2018-12-01T01:16:03.201Z,11.63
2018-12-01T01:16:42.295Z,13.87
2018-12-01T01:17:21.937Z,11.10
2018-12-01T01:18:02.232Z,12.88
2018-12-01T01:18:41.571Z,12.70
2018-12-01T01:19:21.365Z,10.63
2018-12-01T01:19:59.811Z,12.00
2018-12-01T01:20:38.302Z,14.23
2018-12-01T01:21:17.366Z,12.60
2018-12-01T01:21:55.715Z,16.30
2018-12-01T01:22:35.552Z,13.10
2018-12-01T01:23:13.952Z,14.47
2018-12-01T01:23:52.190Z,12.65
2018-12-01T01:24:30.758Z,15.40
2018-12-01T01:25:09.503Z,14.23
2018-12-01T01:25:48.633Z,8.65
2018-12-01T01:26:27.743Z,13.30
2018-12-01T01:27:06.589Z,10.82
2018-12-01T01:27:45.908Z,12.73
2018-12-01T01:28:24.341Z,15.35
2018-12-01T01:29:02.741Z,10.50
2018-12-01T01:29:41.252Z,10.65
2018-12-01T01:30:24.072Z,13.30
2018-12-01T01:31:03.008Z,19.75
2018-12-01T01:31:41.994Z,12.90
2018-12-01T01:32:21.600Z,17.37
2018-12-01T01:33:09.148Z,11.95
2018-12-01T01:33:48.523Z,12.07
2018-12-01T01:34:28.837Z,11.33
2018-12-01T01:35:07.447Z,11.43
2018-12-01T01:35:46.119Z,14.43
2018-12-01T01:36:24.040Z,11.08
2018-12-01T01:37:02.983Z,11.25
2018-12-01T01:37:41.561Z,12.75
2018-12-01T01:38:20.345Z,11.20
2018-12-01T01:38:58.757Z,10.50
2018-12-01T01:39:37.589Z,14.98
2018-12-01T01:40:18.847Z,10.08
2018-12-01T01:41:01.072Z,9.98
2018-12-01T01:41:39.518Z,13.93
2018-12-01T01:42:18.398Z,10.20
2018-12-01T01:42:56.889Z,11.00
2018-12-01T01:43:35.447Z,17.12
2018-12-01T01:44:14.624Z,12.10
2018-12-01T01:44:53.136Z,10.95
2018-12-01T01:45:33.035Z,13.03
2018-12-01T01:46:12.790Z,14.10
2018-12-01T01:46:52.082Z,9.23
2018-12-01T01:47:31.609Z,20.10
2018-12-01T01:48:11.058Z,12.40
2018-12-01T01:48:50.076Z,9.98
2018-12-01T01:49:30.944Z,13.28
2018-12-01T01:50:10.881Z,13.43
2018-12-01T01:50:49.570Z,10.93
2018-12-01T01:51:27.841Z,10.78
2018-12-01T01:52:06.859Z,10.68
2018-12-01T01:52:45.437Z,11.05
2018-12-01T01:53:24.175Z,8.85
2018-12-01T01:54:02.637Z,10.88
2018-12-01T01:54:41.383Z,9.35
2018-12-01T01:55:19.841Z,9.58
2018-12-01T01:55:59.234Z,16.97
2018-12-01T01:56:37.151Z,12.00
2018-12-01T01:57:18.585Z,16.17
2018-12-01T01:57:57.055Z,9.78
2018-12-01T01:58:35.859Z,8.83
2018-12-01T01:59:17.327Z,15.00
2018-12-01T01:59:55.603Z,10.48
2018-12-01T02:00:33.934Z,12.60
2018-12-01T02:01:13.274Z,10.18
2018-12-01T02:01:52.722Z,10.75
2018-12-01T02:02:31.880Z,15.88
2018-12-01T02:03:10.536Z,12.85
2018-12-01T02:03:48.965Z,10.40
2018-12-01T02:04:28.779Z,14.58
2018-12-01T02:05:07.361Z,12.75
2018-12-01T02:05:45.726Z,10.25
2018-12-01T02:06:25.268Z,12.50
2018-12-01T02:07:03.606Z,10.72
2018-12-01T02:07:42.291Z,11.05
2018-12-01T02:08:20.976Z,10.25
2018-12-01T02:08:59.672Z,10.60
2018-12-01T02:09:37.791Z,9.15
2018-12-01T02:10:17.331Z,9.53
2018-12-01T02:10:56.705Z,9.33
2018-12-01T02:11:36.276Z,12.98
2018-12-01T02:12:15.687Z,9.88
2018-12-01T02:12:54.450Z,13.05
2018-12-01T02:13:33.026Z,10.25
2018-12-01T02:14:11.481Z,11.93
2018-12-01T02:14:50.102Z,13.22
2018-12-01T02:15:29.609Z,11.20
2018-12-01T02:16:08.258Z,9.90
2018-12-01T02:16:46.579Z,9.43
2018-12-01T02:17:26.846Z,8.70
2018-12-01T02:18:06.240Z,13.65
2018-12-01T02:18:44.766Z,13.08
2018-12-01T02:19:23.192Z,10.38
2018-12-01T02:20:01.742Z,10.60
2018-12-01T02:20:40.289Z,11.40
2018-12-01T02:21:26.002Z,14.35
2018-12-01T02:22:04.606Z,8.88
2018-12-01T02:22:42.872Z,14.10
2018-12-01T02:23:22.313Z,12.35
2018-12-01T02:24:00.607Z,12.60
2018-12-01T02:24:40.616Z,8.93
2018-12-01T02:25:20.879Z,9.18
2018-12-01T02:25:59.741Z,12.35
2018-12-01T02:26:38.188Z,10.38
2018-12-01T02:27:16.298Z,12.23
2018-12-01T02:27:55.055Z,10.63
2018-12-01T02:28:34.401Z,13.00
2018-12-01T02:29:12.599Z,10.85
2018-12-01T02:29:51.712Z,9.25
2018-12-01T02:30:30.647Z,9.45
2018-12-01T02:31:13.366Z,14.23
2018-12-01T02:31:51.569Z,10.00
2018-12-01T02:32:29.993Z,14.23
2018-12-01T02:33:09.682Z,9.33
2018-12-01T02:33:48.018Z,10.90
2018-12-01T02:34:26.450Z,9.80
2018-12-01T02:35:04.766Z,11.25
2018-12-01T02:35:43.403Z,14.80
2018-12-01T02:36:21.941Z,10.65
2018-12-01T02:37:01.474Z,10.60
2018-12-01T02:37:41.481Z,13.70
2018-12-01T02:38:21.165Z,14.87
2018-12-01T02:38:59.732Z,14.75
2018-12-01T02:39:40.991Z,12.95
2018-12-01T02:40:20.114Z,11.15
2018-12-01T02:40:58.680Z,9.98
2018-12-01T02:41:37.409Z,10.95
2018-12-01T02:42:15.879Z,9.83
2018-12-01T02:42:54.900Z,13.55
2018-12-01T02:43:33.076Z,10.68
2018-12-01T02:44:20.248Z,12.80
2018-12-01T02:45:07.967Z,19.37
2018-12-01T02:45:55.310Z,11.43
2018-12-01T02:46:43.511Z,12.95
2018-12-01T02:47:21.949Z,10.48
2018-12-01T02:48:02.229Z,11.90
2018-12-01T02:48:40.919Z,11.37
2018-12-01T02:49:19.507Z,13.13
2018-12-01T02:49:59.561Z,13.98
2018-12-01T02:50:39.134Z,16.37
2018-12-01T02:51:18.348Z,15.30
2018-12-01T02:51:58.176Z,15.25
2018-12-01T02:52:36.677Z,13.03
2018-12-01T02:53:15.886Z,14.75
2018-12-01T02:53:55.821Z,17.70
2018-12-01T02:54:34.355Z,13.73
2018-12-01T02:55:12.935Z,12.58
2018-12-01T02:55:51.812Z,15.30
2018-12-01T02:56:30.726Z,17.73
2018-12-01T02:57:09.333Z,17.20
2018-12-01T02:57:48.607Z,11.87
2018-12-01T02:58:27.201Z,12.55
2018-12-01T02:59:05.616Z,18.15
2018-12-01T02:59:45.247Z,14.15
2018-12-01T03:00:24.998Z,19.77
2018-12-01T03:01:03.577Z,17.02
2018-12-01T03:01:42.442Z,13.20
2018-12-01T03:02:21.362Z,16.80
2018-12-01T03:02:59.751Z,16.23
2018-12-01T03:03:39.611Z,12.23
2018-12-01T03:04:18.085Z,18.65
2018-12-01T03:04:56.790Z,13.35
2018-12-01T03:05:36.083Z,17.82
2018-12-01T03:06:14.818Z,15.50
2018-12-01T03:06:53.405Z,14.05
2018-12-01T03:07:32.013Z,14.13
2018-12-01T03:08:11.201Z,15.75
2018-12-01T03:08:49.925Z,16.60
2018-12-01T03:09:28.678Z,17.48
2018-12-01T03:10:09.778Z,15.70
2018-12-01T03:10:48.365Z,16.12
2018-12-01T03:11:27.026Z,19.40
2018-12-01T03:12:06.951Z,19.25
2018-12-01T03:12:49.706Z,14.40
2018-12-01T03:13:31.969Z,17.02
2018-12-01T03:14:11.026Z,19.05
2018-12-01T03:14:50.214Z,19.82
2018-12-01T03:15:29.127Z,16.25
2018-12-01T03:16:08.181Z,14.35
2018-12-01T03:16:47.495Z,22.67
2018-12-01T03:17:26.659Z,13.62
2018-12-01T03:18:04.837Z,14.93
2018-12-01T03:18:43.526Z,15.00
2018-12-01T03:19:25.788Z,16.23
2018-12-01T03:20:03.840Z,14.70
2018-12-01T03:20:43.277Z,15.03
2018-12-01T03:21:22.818Z,13.85
2018-12-01T03:22:01.808Z,16.57
2018-12-01T03:22:41.169Z,18.40
2018-12-01T03:23:20.619Z,15.20
2018-12-01T03:24:00.950Z,23.07
2018-12-01T03:24:39.954Z,12.93
2018-12-01T03:25:23.986Z,14.47
2018-12-01T03:26:07.320Z,15.05
2018-12-01T03:26:45.781Z,14.28
2018-12-01T03:27:25.530Z,14.63
2018-12-01T03:28:07.676Z,13.98
2018-12-01T03:28:46.488Z,13.35
2018-12-01T03:29:25.179Z,15.72
2018-12-01T03:30:03.890Z,16.77
2018-12-01T03:30:43.067Z,11.90
2018-12-01T03:31:22.672Z,15.65
2018-12-01T03:32:01.443Z,11.70
2018-12-01T03:32:41.093Z,19.87
2018-12-01T03:33:19.753Z,13.93
2018-12-01T03:33:58.957Z,12.23
2018-12-01T03:34:37.320Z,11.97
2018-12-01T03:35:17.552Z,12.90
2018-12-01T03:35:56.451Z,12.60
2018-12-01T03:36:35.256Z,13.80
2018-12-01T03:37:13.948Z,11.55
2018-12-01T03:37:55.125Z,13.20
2018-12-01T03:38:33.814Z,14.50
2018-12-01T03:39:14.183Z,11.80
2018-12-01T03:39:52.341Z,14.00
2018-12-01T03:40:36.672Z,12.78
2018-12-01T03:41:16.188Z,13.45
2018-12-01T03:41:54.846Z,14.00
2018-12-01T03:42:33.419Z,16.45
2018-12-01T03:43:13.980Z,12.30
2018-12-01T03:43:52.836Z,12.10
2018-12-01T03:44:32.424Z,17.98
2018-12-01T03:45:13.327Z,12.93
2018-12-01T03:45:52.705Z,11.68
2018-12-01T03:46:31.791Z,16.75
2018-12-01T03:47:10.464Z,13.93
2018-12-01T03:47:50.140Z,15.63
2018-12-01T03:48:29.217Z,20.48
2018-12-01T03:49:07.672Z,12.55
2018-12-01T03:49:46.450Z,13.20
2018-12-01T03:50:26.213Z,12.80
2018-12-01T03:51:04.569Z,12.68
2018-12-01T03:51:43.306Z,14.33
2018-12-01T03:52:22.158Z,12.60
2018-12-01T03:53:01.638Z,12.27
2018-12-01T03:53:39.935Z,11.70
2018-12-01T03:54:18.583Z,13.63
2018-12-01T03:54:57.886Z,11.50
2018-12-01T03:55:37.108Z,12.37
2018-12-01T03:56:15.934Z,14.00
2018-12-01T03:56:54.473Z,13.60
2018-12-01T03:57:33.157Z,15.70
2018-12-01T03:58:11.415Z,11.30
2018-12-01T03:58:50.212Z,14.00
2018-12-01T03:59:28.951Z,14.83
2018-12-01T04:00:08.289Z,16.80
2018-12-01T04:00:48.417Z,13.48
2018-12-01T04:01:27.315Z,13.00
2018-12-01T04:02:06.787Z,16.50
2018-12-01T04:02:45.262Z,12.53
2018-12-01T04:03:26.167Z,11.87
2018-12-01T04:04:05.721Z,11.65
2018-12-01T04:04:45.465Z,12.20
2018-12-01T04:05:24.599Z,13.00
2018-12-01T04:06:03.121Z,12.00
2018-12-01T04:06:41.247Z,11.73
2018-12-01T04:07:19.999Z,10.93
2018-12-01T04:07:59.695Z,15.97
2018-12-01T04:08:38.275Z,15.10
2018-12-01T04:09:26.587Z,13.20
2018-12-01T04:10:05.408Z,11.57
2018-12-01T04:10:44.321Z,17.50
2018-12-01T04:11:22.652Z,13.47
2018-12-01T04:12:01.283Z,11.50
2018-12-01T04:12:39.696Z,12.17
2018-12-01T04:13:18.223Z,15.50
2018-12-01T04:13:57.455Z,11.53
2018-12-01T04:14:37.149Z,14.57
2018-12-01T04:15:15.813Z,12.28
2018-12-01T04:15:54.416Z,12.50
2018-12-01T04:16:33.429Z,12.28
2018-12-01T04:17:12.074Z,12.30
2018-12-01T04:17:51.181Z,13.13
2018-12-01T04:18:30.214Z,11.50
2018-12-01T04:19:09.182Z,11.17
2018-12-01T04:19:47.948Z,11.10
2018-12-01T04:20:26.508Z,13.05
2018-12-01T04:21:04.957Z,13.17
2018-12-01T04:21:43.639Z,11.00
2018-12-01T04:22:22.579Z,11.73
2018-12-01T04:23:02.221Z,11.20
2018-12-01T04:23:41.701Z,11.53
2018-12-01T04:24:20.278Z,10.93
2018-12-01T04:24:58.504Z,10.73
2018-12-01T04:25:37.285Z,11.67
2018-12-01T04:26:15.759Z,10.27
2018-12-01T04:26:54.279Z,10.90
2018-12-01T04:27:32.883Z,13.47
2018-12-01T04:28:12.456Z,10.17
2018-12-01T04:28:50.679Z,10.67
2018-12-01T04:29:28.942Z,11.03
2018-12-01T04:30:11.537Z,10.78
2018-12-01T04:30:51.557Z,10.27
2018-12-01T04:31:31.306Z,12.18
2018-12-01T04:32:10.926Z,10.07
2018-12-01T04:32:49.358Z,12.73
2018-12-01T04:33:30.776Z,10.67
2018-12-01T04:34:10.561Z,14.80
2018-12-01T04:34:49.314Z,10.17
2018-12-01T04:35:27.947Z,12.57
2018-12-01T04:36:06.242Z,11.17
2018-12-01T04:36:44.672Z,12.43
2018-12-01T04:37:22.837Z,11.63
2018-12-01T04:38:01.279Z,11.57
2018-12-01T04:38:39.947Z,10.30
2018-12-01T04:39:19.670Z,10.13
2018-12-01T04:39:57.927Z,10.10
2018-12-01T04:40:36.123Z,10.73
2018-12-01T04:41:18.615Z,10.60
2018-12-01T04:41:58.160Z,9.50
2018-12-01T04:42:36.957Z,10.32
2018-12-01T04:43:15.704Z,11.10
2018-12-01T04:43:56.204Z,10.07
2018-12-01T04:44:35.703Z,10.43
2018-12-01T04:45:14.365Z,10.28
2018-12-01T04:45:54.240Z,9.23
2018-12-01T04:46:34.035Z,10.03
2018-12-01T04:47:13.062Z,9.97
2018-12-01T04:47:52.038Z,10.33
2018-12-01T04:48:30.739Z,10.73
2018-12-01T04:49:10.160Z,10.50
2018-12-01T04:49:49.961Z,10.53
2018-12-01T04:50:29.779Z,9.40
2018-12-01T04:51:08.388Z,9.77
2018-12-01T04:51:47.171Z,9.03
2018-12-01T04:52:26.382Z,10.32
2018-12-01T04:53:05.614Z,12.50
2018-12-01T04:53:44.371Z,9.80
2018-12-01T04:54:23.393Z,9.93
2018-12-01T04:55:02.340Z,10.82
2018-12-01T04:55:41.452Z,10.47
2018-12-01T04:56:21.980Z,10.03
2018-12-01T04:57:01.550Z,9.83
2018-12-01T04:57:40.386Z,9.10
2018-12-01T04:58:19.356Z,9.08
2018-12-01T04:58:58.964Z,8.78
2018-12-01T04:59:37.962Z,10.63
2018-12-01T05:00:20.413Z,9.40
2018-12-01T05:00:58.808Z,10.80
2018-12-01T05:01:37.482Z,10.57
2018-12-01T05:02:16.138Z,10.80
2018-12-01T05:02:55.483Z,9.13
2018-12-01T05:03:34.926Z,8.43
2018-12-01T05:04:13.422Z,9.83
2018-12-01T05:04:52.227Z,8.60
2018-12-01T05:05:30.454Z,8.90
2018-12-01T05:06:08.913Z,8.53
2018-12-01T05:06:48.116Z,8.27
2018-12-01T05:07:26.493Z,8.98
2018-12-01T05:08:05.161Z,8.60
2018-12-01T05:08:47.063Z,10.97
2018-12-01T05:09:25.568Z,8.15
2018-12-01T05:10:05.485Z,8.37
2018-12-01T05:10:43.888Z,11.03
2018-12-01T05:11:23.133Z,8.13
2018-12-01T05:12:01.699Z,12.03
2018-12-01T05:12:40.466Z,7.97
2018-12-01T05:13:18.851Z,9.67
2018-12-01T05:13:56.933Z,8.63
2018-12-01T05:14:36.300Z,8.63
2018-12-01T05:15:17.121Z,8.93
2018-12-01T05:15:55.815Z,7.60
2018-12-01T05:16:35.275Z,7.65
2018-12-01T05:17:14.391Z,7.53
2018-12-01T05:17:53.404Z,7.43
2018-12-01T05:18:32.158Z,7.97
2018-12-01T05:19:11.315Z,7.93
2018-12-01T05:19:50.059Z,8.73
2018-12-01T05:20:28.781Z,7.73
2018-12-01T05:21:07.290Z,8.23
2018-12-01T05:22:50.693Z,9.90
2018-12-01T05:24:32.760Z,7.40
2018-12-01T05:25:12.703Z,8.30
2018-12-01T05:25:51.482Z,8.20
2018-12-01T05:26:30.112Z,10.00
2018-12-01T05:27:09.385Z,7.10
2018-12-01T05:27:47.939Z,6.92
2018-12-01T05:28:26.720Z,7.10
2018-12-01T05:29:05.290Z,6.50
2018-12-01T05:29:43.491Z,7.10
2018-12-01T05:30:22.218Z,6.03
2018-12-01T05:31:01.296Z,6.77
2018-12-01T05:31:39.740Z,8.67
2018-12-01T05:32:17.846Z,6.77
2018-12-01T05:32:56.827Z,6.53
2018-12-01T05:33:35.310Z,6.20
2018-12-01T05:34:13.819Z,6.03
2018-12-01T05:34:52.235Z,7.77
2018-12-01T05:35:31.289Z,6.63
2018-12-01T05:36:09.811Z,12.13
2018-12-01T05:36:49.679Z,6.53
2018-12-01T05:37:29.175Z,6.80
2018-12-01T05:38:08.767Z,6.87
2018-12-01T05:38:47.823Z,6.57
2018-12-01T05:39:27.375Z,8.17
2018-12-01T05:40:08.274Z,7.77
2018-12-01T05:40:47.130Z,6.20
2018-12-01T05:41:26.060Z,5.53
2018-12-01T05:42:04.446Z,7.90
2018-12-01T05:42:43.054Z,5.97
2018-12-01T05:43:22.916Z,7.00
2018-12-01T05:44:02.118Z,7.47
2018-12-01T05:44:40.685Z,5.60
2018-12-01T05:45:24.989Z,5.73
2018-12-01T05:46:03.565Z,7.27
2018-12-01T05:46:42.156Z,8.13
2018-12-01T05:47:20.689Z,5.97
2018-12-01T05:47:59.467Z,5.80
2018-12-01T05:48:37.901Z,4.80
2018-12-01T05:49:16.897Z,6.70
2018-12-01T05:49:55.579Z,8.50
2018-12-01T05:50:34.163Z,5.40
2018-12-01T05:51:14.499Z,5.83
2018-12-01T05:51:53.942Z,6.03
2018-12-01T05:52:33.324Z,8.70
2018-12-01T05:53:12.303Z,6.40
2018-12-01T05:53:52.247Z,7.10
2018-12-01T05:54:32.221Z,5.50
2018-12-01T05:55:15.030Z,6.70
2018-12-01T05:55:53.891Z,6.50
2018-12-01T05:56:32.374Z,5.37
2018-12-01T05:57:12.094Z,6.43
2018-12-01T05:57:50.781Z,5.10
2018-12-01T05:58:30.008Z,7.10
2018-12-01T05:59:08.852Z,7.80
2018-12-01T05:59:49.084Z,4.50
2018-12-01T06:00:27.834Z,4.90
2018-12-01T06:01:06.590Z,5.40
2018-12-01T06:01:45.259Z,5.50
2018-12-01T06:02:24.047Z,6.30
2018-12-01T06:03:04.100Z,5.97
2018-12-01T06:03:43.501Z,6.83
2018-12-01T06:04:22.430Z,6.70
2018-12-01T06:05:01.491Z,6.37
2018-12-01T06:05:40.840Z,5.27
2018-12-01T06:06:33.335Z,5.27
2018-12-01T06:07:13.063Z,7.60
2018-12-01T06:07:52.386Z,4.77
2018-12-01T06:08:30.865Z,4.50
2018-12-01T06:09:11.833Z,6.23
2018-12-01T06:09:50.156Z,5.50
2018-12-01T06:10:29.216Z,5.47
2018-12-01T06:11:09.915Z,6.80
2018-12-01T06:11:48.816Z,4.13
2018-12-01T06:12:27.494Z,4.67
2018-12-01T06:13:06.247Z,6.03
2018-12-01T06:13:46.361Z,4.87
2018-12-01T06:14:26.457Z,8.80
2018-12-01T06:15:05.291Z,9.23
2018-12-01T06:15:43.629Z,7.83
2018-12-01T06:16:23.354Z,5.03
2018-12-01T06:17:01.889Z,5.23
2018-12-01T06:17:40.576Z,4.70
2018-12-01T06:18:19.596Z,7.17
2018-12-01T06:18:59.534Z,5.17
2018-12-01T06:19:38.071Z,7.57
2018-12-01T06:20:19.341Z,9.37
2018-12-01T06:20:59.295Z,10.33
2018-12-01T06:21:38.029Z,5.73
2018-12-01T06:22:16.452Z,4.60
2018-12-01T06:22:55.927Z,4.83
2018-12-01T06:23:34.726Z,5.27
2018-12-01T06:24:13.629Z,4.30
2018-12-01T06:24:52.970Z,5.80
2018-12-01T06:25:33.216Z,4.83
2018-12-01T06:26:11.444Z,5.30
2018-12-01T06:26:49.611Z,4.47
2018-12-01T06:27:28.902Z,5.20
2018-12-01T06:28:08.100Z,5.40
2018-12-01T06:28:46.444Z,4.77
2018-12-01T06:29:26.381Z,3.73
2018-12-01T06:30:06.860Z,8.60
2018-12-01T06:30:45.130Z,6.57
2018-12-01T06:31:23.541Z,4.23
2018-12-01T06:32:02.213Z,5.53
2018-12-01T06:32:40.698Z,4.90
2018-12-01T06:33:19.062Z,4.70
2018-12-01T06:33:58.992Z,5.20
2018-12-01T06:34:38.954Z,4.70
2018-12-01T06:35:17.004Z,6.67
2018-12-01T06:35:55.517Z,5.03
2018-12-01T06:36:34.082Z,6.57
2018-12-01T06:37:12.897Z,7.30
2018-12-01T06:37:51.715Z,6.47
2018-12-01T06:38:31.255Z,7.47
2018-12-01T06:39:11.616Z,4.90
2018-12-01T06:39:50.463Z,6.10
2018-12-01T06:40:29.173Z,4.50
2018-12-01T06:41:07.909Z,11.30
2018-12-01T06:41:46.442Z,5.80
2018-12-01T06:42:24.766Z,5.20
2018-12-01T06:43:03.320Z,7.37
2018-12-01T06:43:42.014Z,13.70
2018-12-01T06:44:21.476Z,4.33
2018-12-01T06:45:00.213Z,8.37
2018-12-01T06:45:38.733Z,5.97
2018-12-01T06:46:17.560Z,8.03
2018-12-01T06:46:56.219Z,5.83
2018-12-01T06:47:34.951Z,6.60
2018-12-01T06:48:13.354Z,5.10
2018-12-01T06:48:51.522Z,6.20
2018-12-01T06:49:30.168Z,9.83
2018-12-01T06:50:10.506Z,7.40
2018-12-01T06:50:50.181Z,8.20
2018-12-01T06:51:29.699Z,9.03
2018-12-01T06:52:07.897Z,7.77
2018-12-01T06:52:46.590Z,5.20
2018-12-01T06:53:27.890Z,7.80
2018-12-01T06:54:06.354Z,5.43
2018-12-01T06:54:45.949Z,6.33
2018-12-01T06:55:25.156Z,6.10
2018-12-01T06:56:05.895Z,5.60
2018-12-01T06:56:45.337Z,4.30
2018-12-01T06:57:23.807Z,5.30
2018-12-01T06:58:02.341Z,4.40
2018-12-01T06:58:41.406Z,8.60
2018-12-01T06:59:20.881Z,6.40
2018-12-01T07:00:01.161Z,4.63
2018-12-01T07:00:39.542Z,6.13
2018-12-01T07:01:19.084Z,6.10
2018-12-01T07:01:58.634Z,4.80
2018-12-01T07:02:37.161Z,4.73
2018-12-01T07:03:15.286Z,6.10
2018-12-01T07:03:54.179Z,5.57
2018-12-01T07:04:33.052Z,4.73
2018-12-01T07:05:12.464Z,9.90
2018-12-01T07:05:50.984Z,5.43
2018-12-01T07:06:29.454Z,8.63
2018-12-01T07:07:07.862Z,4.90
2018-12-01T07:07:45.898Z,5.37
2018-12-01T07:08:23.981Z,5.83
2018-12-01T07:09:03.592Z,5.03
2018-12-01T07:09:41.924Z,6.73
2018-12-01T07:10:22.507Z,8.30
2018-12-01T07:11:01.242Z,5.33
2018-12-01T07:11:40.811Z,6.60
2018-12-01T07:12:19.562Z,6.00
2018-12-01T07:13:03.703Z,5.90
2018-12-01T07:13:42.384Z,8.33
2018-12-01T07:14:20.839Z,4.37
2018-12-01T07:15:01.824Z,6.60
2018-12-01T07:15:42.751Z,6.53
2018-12-01T07:16:21.033Z,6.70
2018-12-01T07:17:02.517Z,4.90
2018-12-01T07:17:41.827Z,6.80
2018-12-01T07:18:29.278Z,8.37
2018-12-01T07:19:16.692Z,6.40
2018-12-01T07:19:54.983Z,8.73
2018-12-01T07:20:33.718Z,4.73
2018-12-01T07:21:12.120Z,4.73
2018-12-01T07:21:52.237Z,4.77
2018-12-01T07:22:30.751Z,6.53
2018-12-01T07:23:09.002Z,7.43
2018-12-01T07:23:47.611Z,6.50
2018-12-01T07:24:27.336Z,5.83
2018-12-01T07:25:05.492Z,4.87
2018-12-01T07:25:44.185Z,5.43
2018-12-01T07:26:23.888Z,6.73
2018-12-01T07:27:02.261Z,5.70
2018-12-01T07:27:42.932Z,6.80
2018-12-01T07:28:21.532Z,5.97
2018-12-01T07:29:00.577Z,4.90
2018-12-01T07:29:41.355Z,7.00
2018-12-01T07:30:26.265Z,6.73
2018-12-01T07:31:04.959Z,5.17
2018-12-01T07:31:43.331Z,7.17
2018-12-01T07:32:21.880Z,5.30
2018-12-01T07:32:59.857Z,5.67
2018-12-01T07:33:39.631Z,6.03
2018-12-01T07:34:19.892Z,5.20
2018-12-01T07:34:58.517Z,6.23
2018-12-01T07:35:38.517Z,5.93
2018-12-01T07:36:16.592Z,4.13
2018-12-01T07:36:54.717Z,8.03
2018-12-01T07:37:33.550Z,8.70
2018-12-01T07:38:12.926Z,7.77
2018-12-01T07:38:52.165Z,5.57
2018-12-01T07:39:30.713Z,4.73
2018-12-01T07:40:12.559Z,6.07
2018-12-01T07:40:52.851Z,5.90
2018-12-01T07:41:32.672Z,5.20
2018-12-01T07:42:11.732Z,7.27
2018-12-01T07:42:50.722Z,5.77
2018-12-01T07:43:29.187Z,6.27
2018-12-01T07:44:07.988Z,12.23
2018-12-01T07:44:47.010Z,6.93
2018-12-01T07:45:26.137Z,6.90
2018-12-01T07:46:04.756Z,5.83
2018-12-01T07:46:43.352Z,10.30
2018-12-01T07:47:23.017Z,9.03
2018-12-01T07:48:01.551Z,4.73
2018-12-01T07:48:40.158Z,8.77
2018-12-01T07:49:18.670Z,6.60
2018-12-01T07:49:56.889Z,5.80
2018-12-01T07:50:36.463Z,5.40
2018-12-01T07:51:14.707Z,9.83
2018-12-01T07:51:53.119Z,5.63
2018-12-01T07:52:31.434Z,5.33
2018-12-01T07:53:09.747Z,6.57
2018-12-01T07:53:49.266Z,9.60
2018-12-01T07:54:27.822Z,5.87
2018-12-01T07:55:06.381Z,5.30
2018-12-01T07:55:45.939Z,6.67
2018-12-01T07:56:24.299Z,6.07
2018-12-01T07:57:03.186Z,4.77
2018-12-01T07:57:43.409Z,7.40
2018-12-01T07:58:22.974Z,10.07
2018-12-01T07:59:02.436Z,6.77
2018-12-01T07:59:40.732Z,5.83
2018-12-01T08:00:20.416Z,5.77
2018-12-01T08:00:58.553Z,8.73
2018-12-01T08:01:38.403Z,4.70
2018-12-01T08:02:16.874Z,7.97
2018-12-01T08:02:56.363Z,5.03
2018-12-01T08:03:34.789Z,7.83
2018-12-01T08:04:13.474Z,9.77
2018-12-01T08:04:52.523Z,7.60
2018-12-01T08:05:32.466Z,5.73
2018-12-01T08:06:11.994Z,8.40
2018-12-01T08:06:51.495Z,9.67
2018-12-01T08:07:29.569Z,5.67
2018-12-01T08:08:08.713Z,5.87
2018-12-01T08:08:47.871Z,7.70
2018-12-01T08:09:27.149Z,5.67
2018-12-01T08:10:06.714Z,9.00
2018-12-01T08:10:44.748Z,8.20
2018-12-01T08:11:22.789Z,7.20
2018-12-01T08:12:01.680Z,5.23
2018-12-01T08:12:39.873Z,6.47
2018-12-01T08:13:18.924Z,6.70
2018-12-01T08:13:58.185Z,12.23
2018-12-01T08:14:36.195Z,5.87
2018-12-01T08:15:18.959Z,6.67
2018-12-01T08:15:57.002Z,8.50
2018-12-01T08:16:35.125Z,7.90
2018-12-01T08:17:13.107Z,8.30
2018-12-01T08:17:53.001Z,6.37
2018-12-01T08:18:31.130Z,9.47
2018-12-01T08:19:10.762Z,8.93
2018-12-01T08:19:55.120Z,8.10
2018-12-01T08:20:33.447Z,8.00
2018-12-01T08:21:11.731Z,5.27
2018-12-01T08:21:50.300Z,5.20
2018-12-01T08:22:28.735Z,10.10
2018-12-01T08:23:07.146Z,5.77
2018-12-01T08:23:47.080Z,6.67
2018-12-01T08:24:25.919Z,8.47
2018-12-01T08:25:04.517Z,9.37
2018-12-01T08:25:44.087Z,5.70
2018-12-01T08:26:22.656Z,5.67
2018-12-01T08:27:00.786Z,8.50
2018-12-01T08:27:39.559Z,9.83
2018-12-01T08:28:19.592Z,5.87
2018-12-01T08:28:58.983Z,8.30
2018-12-01T08:29:37.316Z,6.90
2018-12-01T08:30:19.055Z,5.03
2018-12-01T08:30:57.833Z,10.00
2018-12-01T08:31:36.616Z,7.43
2018-12-01T08:32:14.914Z,9.05
2018-12-01T08:32:54.179Z,6.33
2018-12-01T08:33:34.735Z,6.20
2018-12-01T08:34:13.228Z,8.80
2018-12-01T08:34:52.192Z,7.43
2018-12-01T08:35:32.690Z,8.83
2018-12-01T08:36:11.363Z,5.80
2018-12-01T08:36:49.655Z,6.00
2018-12-01T08:37:28.596Z,7.33
2018-12-01T08:38:06.909Z,6.37
2018-12-01T08:38:44.822Z,6.67
2018-12-01T08:39:23.040Z,6.70
2018-12-01T08:40:01.656Z,6.93